sensor_id;sensor_type;location;lat;lon;timestamp;pressure;altitude;pressure_sealevel;temperature;humidity
44140;BME280;29803;51.048;4.686;2023-02-01T00:00:33;102218.94;;;4.76;100.00
44140;BME280;29803;51.048;4.686;2023-02-01T00:03:04;102220.28;;;4.83;100.00
44140;BME280;29803;51.048;4.686;2023-02-01T00:05:35;102216.56;;;4.86;100.00
44140;BME280;29803;51.048;4.686;2023-02-01T00:08:06;102208.97;;;4.94;100.00
44140;BME280;29803;51.048;4.686;2023-02-01T00:10:36;102210.38;;;5.00;100.00
44140;BME280;29803;51.048;4.686;2023-02-01T00:13:07;102203.69;;;5.07;100.00
44140;BME280;29803;51.048;4.686;2023-02-01T00:15:37;102205.16;;;5.12;100.00
44140;BME280;29803;51.048;4.686;2023-02-01T00:18:07;102196.00;;;5.16;100.00
44140;BME280;29803;51.048;4.686;2023-02-01T00:20:38;102197.63;;;5.19;100.00
44140;BME280;29803;51.048;4.686;2023-02-01T00:23:08;102191.03;;;5.25;100.00
44140;BME280;29803;51.048;4.686;2023-02-01T00:25:40;102185.72;;;5.25;100.00
44140;BME280;29803;51.048;4.686;2023-02-01T00:28:10;102188.28;;;5.26;100.00
44140;BME280;29803;51.048;4.686;2023-02-01T00:30:43;102173.94;;;5.29;100.00
44140;BME280;29803;51.048;4.686;2023-02-01T00:33:14;102161.38;;;5.31;100.00
44140;BME280;29803;51.048;4.686;2023-02-01T00:35:45;102154.16;;;5.33;100.00
44140;BME280;29803;51.048;4.686;2023-02-01T00:38:15;102144.91;;;5.38;100.00
44140;BME280;29803;51.048;4.686;2023-02-01T00:40:45;102150.13;;;5.40;100.00
44140;BME280;29803;51.048;4.686;2023-02-01T00:43:16;102148.00;;;5.45;100.00
44140;BME280;29803;51.048;4.686;2023-02-01T00:45:47;102143.44;;;5.47;100.00
44140;BME280;29803;51.048;4.686;2023-02-01T00:48:17;102133.56;;;5.49;100.00
44140;BME280;29803;51.048;4.686;2023-02-01T00:50:47;102125.69;;;5.48;100.00
44140;BME280;29803;51.048;4.686;2023-02-01T00:53:18;102134.72;;;5.45;100.00
44140;BME280;29803;51.048;4.686;2023-02-01T00:55:48;102129.91;;;5.37;100.00
44140;BME280;29803;51.048;4.686;2023-02-01T00:58:19;102133.91;;;5.30;100.00
44140;BME280;29803;51.048;4.686;2023-02-01T01:00:49;102136.53;;;5.17;100.00
44140;BME280;29803;51.048;4.686;2023-02-01T01:03:20;102145.97;;;5.09;100.00
44140;BME280;29803;51.048;4.686;2023-02-01T01:05:50;102156.16;;;5.02;100.00
44140;BME280;29803;51.048;4.686;2023-02-01T01:08:21;102169.75;;;4.98;100.00
44140;BME280;29803;51.048;4.686;2023-02-01T01:10:52;102164.41;;;4.98;100.00
44140;BME280;29803;51.048;4.686;2023-02-01T01:13:22;102167.72;;;5.01;100.00
44140;BME280;29803;51.048;4.686;2023-02-01T01:15:53;102165.91;;;5.02;100.00
44140;BME280;29803;51.048;4.686;2023-02-01T01:18:24;102160.59;;;5.02;100.00
44140;BME280;29803;51.048;4.686;2023-02-01T01:20:54;102161.34;;;5.04;100.00
44140;BME280;29803;51.048;4.686;2023-02-01T01:23:25;102160.59;;;5.02;100.00
44140;BME280;29803;51.048;4.686;2023-02-01T01:25:56;102163.16;;;5.03;100.00
44140;BME280;29803;51.048;4.686;2023-02-01T01:28:26;102166.69;;;5.04;100.00
44140;BME280;29803;51.048;4.686;2023-02-01T01:30:57;102159.72;;;5.01;100.00
44140;BME280;29803;51.048;4.686;2023-02-01T01:33:28;102162.50;;;5.00;100.00
44140;BME280;29803;51.048;4.686;2023-02-01T01:35:58;102162.13;;;4.91;100.00
44140;BME280;29803;51.048;4.686;2023-02-01T01:38:29;102167.72;;;4.87;100.00
44140;BME280;29803;51.048;4.686;2023-02-01T01:41:00;102170.38;;;4.87;100.00
44140;BME280;29803;51.048;4.686;2023-02-01T01:43:51;102168.78;;;4.84;100.00
44140;BME280;29803;51.048;4.686;2023-02-01T01:46:26;102174.78;;;4.88;100.00
44140;BME280;29803;51.048;4.686;2023-02-01T01:49:16;102174.28;;;4.96;100.00
44140;BME280;29803;51.048;4.686;2023-02-01T01:51:51;102185.78;;;4.96;100.00
44140;BME280;29803;51.048;4.686;2023-02-01T01:57:18;102197.06;;;5.14;100.00
44140;BME280;29803;51.048;4.686;2023-02-01T01:59:56;102184.97;;;5.23;100.00
44140;BME280;29803;51.048;4.686;2023-02-01T02:02:30;102198.84;;;5.28;100.00
44140;BME280;29803;51.048;4.686;2023-02-01T02:05:00;102201.78;;;5.23;100.00
44140;BME280;29803;51.048;4.686;2023-02-01T02:07:35;102197.81;;;5.16;100.00
44140;BME280;29803;51.048;4.686;2023-02-01T02:10:09;102197.06;;;5.14;100.00
44140;BME280;29803;51.048;4.686;2023-02-01T02:12:42;102182.34;;;5.08;100.00
44140;BME280;29803;51.048;4.686;2023-02-01T02:15:15;102184.63;;;5.00;100.00
44140;BME280;29803;51.048;4.686;2023-02-01T02:18:02;102182.53;;;4.91;100.00
44140;BME280;29803;51.048;4.686;2023-02-01T02:29:46;102176.59;;;4.73;100.00
44140;BME280;29803;51.048;4.686;2023-02-01T02:35:35;102173.66;;;4.63;100.00
44140;BME280;29803;51.048;4.686;2023-02-01T02:44:13;102183.22;;;4.52;100.00
44140;BME280;29803;51.048;4.686;2023-02-01T02:47:47;102178.41;;;4.44;100.00
44140;BME280;29803;51.048;4.686;2023-02-01T02:53:52;102165.38;;;4.39;100.00
44140;BME280;29803;51.048;4.686;2023-02-01T02:56:46;102159.13;;;4.40;100.00
44140;BME280;29803;51.048;4.686;2023-02-01T02:59:40;102157.25;;;4.43;100.00
44140;BME280;29803;51.048;4.686;2023-02-01T03:02:31;102159.34;;;4.37;100.00
44140;BME280;29803;51.048;4.686;2023-02-01T03:05:21;102155.91;;;4.35;100.00
44140;BME280;29803;51.048;4.686;2023-02-01T03:13:07;102152.28;;;4.36;100.00
44140;BME280;29803;51.048;4.686;2023-02-01T03:15:58;102142.72;;;4.34;100.00
44140;BME280;29803;51.048;4.686;2023-02-01T03:18:50;102149.94;;;4.32;100.00
44140;BME280;29803;51.048;4.686;2023-02-01T03:21:28;102156.16;;;4.31;100.00
44140;BME280;29803;51.048;4.686;2023-02-01T03:24:09;102151.91;;;4.28;100.00
44140;BME280;29803;51.048;4.686;2023-02-01T03:26:47;102159.78;;;4.30;100.00
44140;BME280;29803;51.048;4.686;2023-02-01T03:29:27;102153.63;;;4.29;100.00
44140;BME280;29803;51.048;4.686;2023-02-01T03:31:57;102166.63;;;4.34;100.00
44140;BME280;29803;51.048;4.686;2023-02-01T03:34:28;102162.00;;;4.37;100.00
44140;BME280;29803;51.048;4.686;2023-02-01T03:39:56;102156.06;;;4.47;100.00
44140;BME280;29803;51.048;4.686;2023-02-01T03:42:34;102150.59;;;4.50;100.00
44140;BME280;29803;51.048;4.686;2023-02-01T03:45:34;102155.78;;;4.51;100.00
44140;BME280;29803;51.048;4.686;2023-02-01T03:48:06;102154.88;;;4.52;100.00
44140;BME280;29803;51.048;4.686;2023-02-01T03:50:38;102156.19;;;4.45;100.00
44140;BME280;29803;51.048;4.686;2023-02-01T03:53:14;102152.97;;;4.40;100.00
44140;BME280;29803;51.048;4.686;2023-02-01T03:55:46;102151.44;;;4.36;100.00
44140;BME280;29803;51.048;4.686;2023-02-01T03:58:20;102153.06;;;4.38;100.00
44140;BME280;29803;51.048;4.686;2023-02-01T04:00:53;102156.41;;;4.42;100.00
44140;BME280;29803;51.048;4.686;2023-02-01T04:03:25;102162.06;;;4.36;100.00
44140;BME280;29803;51.048;4.686;2023-02-01T04:05:56;102162.53;;;4.28;100.00
44140;BME280;29803;51.048;4.686;2023-02-01T04:08:26;102160.16;;;4.24;100.00
44140;BME280;29803;51.048;4.686;2023-02-01T04:10:57;102158.38;;;4.24;100.00
44140;BME280;29803;51.048;4.686;2023-02-01T04:13:27;102150.38;;;4.24;100.00
44140;BME280;29803;51.048;4.686;2023-02-01T04:15:58;102153.78;;;4.26;100.00
44140;BME280;29803;51.048;4.686;2023-02-01T04:18:28;102162.81;;;4.24;100.00
44140;BME280;29803;51.048;4.686;2023-02-01T04:20:59;102161.97;;;4.23;100.00
44140;BME280;29803;51.048;4.686;2023-02-01T04:23:29;102167.19;;;4.25;100.00
44140;BME280;29803;51.048;4.686;2023-02-01T04:26:03;102172.66;;;4.22;100.00
44140;BME280;29803;51.048;4.686;2023-02-01T04:28:34;102170.22;;;4.19;100.00
44140;BME280;29803;51.048;4.686;2023-02-01T04:31:04;102173.91;;;4.16;100.00
44140;BME280;29803;51.048;4.686;2023-02-01T04:33:35;102167.16;;;4.10;100.00
44140;BME280;29803;51.048;4.686;2023-02-01T04:36:06;102168.84;;;4.11;100.00
44140;BME280;29803;51.048;4.686;2023-02-01T04:38:36;102159.38;;;4.07;100.00
44140;BME280;29803;51.048;4.686;2023-02-01T04:41:06;102161.19;;;4.07;100.00
44140;BME280;29803;51.048;4.686;2023-02-01T04:43:37;102164.50;;;4.10;100.00
44140;BME280;29803;51.048;4.686;2023-02-01T04:46:07;102155.56;;;4.11;100.00
44140;BME280;29803;51.048;4.686;2023-02-01T04:48:38;102154.44;;;4.15;100.00
44140;BME280;29803;51.048;4.686;2023-02-01T04:51:09;102154.56;;;4.14;100.00
44140;BME280;29803;51.048;4.686;2023-02-01T04:53:40;102157.31;;;4.12;100.00
44140;BME280;29803;51.048;4.686;2023-02-01T04:56:11;102157.97;;;4.16;100.00
44140;BME280;29803;51.048;4.686;2023-02-01T04:58:41;102153.59;;;4.15;100.00
44140;BME280;29803;51.048;4.686;2023-02-01T05:01:12;102156.16;;;4.16;100.00
44140;BME280;29803;51.048;4.686;2023-02-01T05:03:43;102150.00;;;4.16;100.00
44140;BME280;29803;51.048;4.686;2023-02-01T05:06:13;102151.72;;;4.17;100.00
44140;BME280;29803;51.048;4.686;2023-02-01T05:08:44;102157.88;;;4.18;100.00
44140;BME280;29803;51.048;4.686;2023-02-01T05:11:14;102154.28;;;4.19;100.00
44140;BME280;29803;51.048;4.686;2023-02-01T05:14:03;102151.78;;;4.15;100.00
44140;BME280;29803;51.048;4.686;2023-02-01T05:16:34;102148.28;;;4.15;100.00
44140;BME280;29803;51.048;4.686;2023-02-01T05:19:05;102157.78;;;4.19;100.00
44140;BME280;29803;51.048;4.686;2023-02-01T05:21:35;102160.53;;;4.18;100.00
44140;BME280;29803;51.048;4.686;2023-02-01T05:24:08;102156.53;;;4.10;100.00
44140;BME280;29803;51.048;4.686;2023-02-01T05:26:40;102155.78;;;4.08;100.00
44140;BME280;29803;51.048;4.686;2023-02-01T05:29:11;102156.75;;;4.07;100.00
44140;BME280;29803;51.048;4.686;2023-02-01T05:31:44;102158.59;;;4.05;100.00
44140;BME280;29803;51.048;4.686;2023-02-01T05:34:16;102156.22;;;4.01;100.00
44140;BME280;29803;51.048;4.686;2023-02-01T05:36:47;102151.88;;;4.00;100.00
44140;BME280;29803;51.048;4.686;2023-02-01T05:39:17;102146.56;;;4.00;100.00
44140;BME280;29803;51.048;4.686;2023-02-01T05:41:48;102135.66;;;4.04;100.00
44140;BME280;29803;51.048;4.686;2023-02-01T05:44:18;102134.72;;;4.05;100.00
44140;BME280;29803;51.048;4.686;2023-02-01T05:46:49;102142.50;;;4.08;100.00
44140;BME280;29803;51.048;4.686;2023-02-01T05:49:19;102146.97;;;4.08;100.00
44140;BME280;29803;51.048;4.686;2023-02-01T05:51:50;102146.28;;;4.04;100.00
44140;BME280;29803;51.048;4.686;2023-02-01T05:54:20;102161.75;;;3.98;100.00
44140;BME280;29803;51.048;4.686;2023-02-01T05:56:51;102163.44;;;3.99;100.00
44140;BME280;29803;51.048;4.686;2023-02-01T05:59:21;102164.03;;;4.04;100.00
44140;BME280;29803;51.048;4.686;2023-02-01T06:01:52;102165.72;;;4.05;100.00
44140;BME280;29803;51.048;4.686;2023-02-01T06:04:22;102155.94;;;4.05;100.00
44140;BME280;29803;51.048;4.686;2023-02-01T06:06:53;102163.06;;;4.05;100.00
44140;BME280;29803;51.048;4.686;2023-02-01T06:09:23;102179.00;;;4.05;100.00
44140;BME280;29803;51.048;4.686;2023-02-01T06:11:54;102169.44;;;4.02;100.00
44140;BME280;29803;51.048;4.686;2023-02-01T06:14:24;102182.78;;;4.01;100.00
44140;BME280;29803;51.048;4.686;2023-02-01T06:16:55;102179.38;;;3.99;100.00
44140;BME280;29803;51.048;4.686;2023-02-01T06:19:26;102179.47;;;3.97;100.00
44140;BME280;29803;51.048;4.686;2023-02-01T06:21:56;102180.41;;;3.96;100.00
44140;BME280;29803;51.048;4.686;2023-02-01T06:24:27;102175.88;;;3.98;100.00
44140;BME280;29803;51.048;4.686;2023-02-01T06:26:57;102176.81;;;3.97;100.00
44140;BME280;29803;51.048;4.686;2023-02-01T06:29:28;102173.22;;;3.98;100.00
44140;BME280;29803;51.048;4.686;2023-02-01T06:31:58;102160.97;;;3.96;100.00
44140;BME280;29803;51.048;4.686;2023-02-01T06:34:29;102158.56;;;3.91;100.00
44140;BME280;29803;51.048;4.686;2023-02-01T06:36:59;102163.97;;;3.89;100.00
44140;BME280;29803;51.048;4.686;2023-02-01T06:39:30;102167.22;;;3.95;100.00
44140;BME280;29803;51.048;4.686;2023-02-01T06:42:00;102162.75;;;3.95;100.00
44140;BME280;29803;51.048;4.686;2023-02-01T06:44:31;102155.66;;;3.96;100.00
44140;BME280;29803;51.048;4.686;2023-02-01T06:47:03;102161.91;;;3.95;100.00
44140;BME280;29803;51.048;4.686;2023-02-01T06:49:34;102175.38;;;3.92;100.00
44140;BME280;29803;51.048;4.686;2023-02-01T06:52:04;102181.44;;;3.94;100.00
44140;BME280;29803;51.048;4.686;2023-02-01T06:54:35;102168.44;;;3.89;100.00
44140;BME280;29803;51.048;4.686;2023-02-01T06:57:07;102177.25;;;3.89;100.00
44140;BME280;29803;51.048;4.686;2023-02-01T06:59:37;102173.16;;;3.84;100.00
44140;BME280;29803;51.048;4.686;2023-02-01T07:02:11;102168.22;;;3.78;100.00
44140;BME280;29803;51.048;4.686;2023-02-01T07:04:41;102174.75;;;3.72;100.00
44140;BME280;29803;51.048;4.686;2023-02-01T07:07:12;102182.97;;;3.68;100.00
44140;BME280;29803;51.048;4.686;2023-02-01T07:09:43;102182.13;;;3.67;100.00
44140;BME280;29803;51.048;4.686;2023-02-01T07:12:13;102182.78;;;3.71;100.00
44140;BME280;29803;51.048;4.686;2023-02-01T07:14:44;102177.41;;;3.72;100.00
44140;BME280;29803;51.048;4.686;2023-02-01T07:17:14;102178.91;;;3.76;100.00
44140;BME280;29803;51.048;4.686;2023-02-01T07:19:45;102184.22;;;3.76;100.00
44140;BME280;29803;51.048;4.686;2023-02-01T07:22:17;102182.63;;;3.74;100.00
44140;BME280;29803;51.048;4.686;2023-02-01T07:24:47;102178.06;;;3.76;100.00
44140;BME280;29803;51.048;4.686;2023-02-01T07:27:18;102175.50;;;3.74;100.00
44140;BME280;29803;51.048;4.686;2023-02-01T07:29:48;102178.06;;;3.76;100.00
44140;BME280;29803;51.048;4.686;2023-02-01T07:32:19;102186.81;;;3.78;100.00
44140;BME280;29803;51.048;4.686;2023-02-01T07:34:49;102185.41;;;3.86;100.00
44140;BME280;29803;51.048;4.686;2023-02-01T07:37:20;102182.56;;;3.89;100.00
44140;BME280;29803;51.048;4.686;2023-02-01T07:39:51;102185.91;;;3.93;100.00
44140;BME280;29803;51.048;4.686;2023-02-01T07:42:21;102178.78;;;3.94;100.00
44140;BME280;29803;51.048;4.686;2023-02-01T07:44:52;102177.47;;;4.01;100.00
44140;BME280;29803;51.048;4.686;2023-02-01T07:47:22;102189.81;;;4.02;100.00
44140;BME280;29803;51.048;4.686;2023-02-01T07:49:53;102179.00;;;4.05;100.00
44140;BME280;29803;51.048;4.686;2023-02-01T07:52:23;102189.25;;;4.11;100.00
44140;BME280;29803;51.048;4.686;2023-02-01T07:54:54;102196.19;;;4.13;100.00
44140;BME280;29803;51.048;4.686;2023-02-01T07:57:24;102198.38;;;4.21;100.00
44140;BME280;29803;51.048;4.686;2023-02-01T07:59:55;102196.53;;;4.37;100.00
44140;BME280;29803;51.048;4.686;2023-02-01T08:02:44;102200.13;;;4.51;100.00
44140;BME280;29803;51.048;4.686;2023-02-01T08:05:14;102193.97;;;4.64;100.00
44140;BME280;29803;51.048;4.686;2023-02-01T08:07:48;102191.03;;;4.69;100.00
44140;BME280;29803;51.048;4.686;2023-02-01T08:10:19;102203.81;;;4.77;100.00
44140;BME280;29803;51.048;4.686;2023-02-01T08:12:50;102206.19;;;4.81;100.00
44140;BME280;29803;51.048;4.686;2023-02-01T08:15:22;102214.56;;;4.89;100.00
44140;BME280;29803;51.048;4.686;2023-02-01T08:17:52;102207.63;;;4.87;100.00
44140;BME280;29803;51.048;4.686;2023-02-01T08:20:24;102208.22;;;4.92;100.00
44140;BME280;29803;51.048;4.686;2023-02-01T08:22:56;102222.53;;;4.89;100.00
44140;BME280;29803;51.048;4.686;2023-02-01T08:25:26;102223.41;;;4.90;100.00
44140;BME280;29803;51.048;4.686;2023-02-01T08:27:57;102222.38;;;4.92;100.00
44140;BME280;29803;51.048;4.686;2023-02-01T08:30:28;102223.22;;;4.93;100.00
44140;BME280;29803;51.048;4.686;2023-02-01T08:32:59;102221.41;;;4.93;100.00
44140;BME280;29803;51.048;4.686;2023-02-01T08:35:29;102238.88;;;4.98;100.00
44140;BME280;29803;51.048;4.686;2023-02-01T08:37:59;102228.44;;;4.94;100.00
44140;BME280;29803;51.048;4.686;2023-02-01T08:40:31;102242.41;;;4.98;100.00
44140;BME280;29803;51.048;4.686;2023-02-01T08:43:01;102247.50;;;5.01;100.00
44140;BME280;29803;51.048;4.686;2023-02-01T08:45:32;102245.53;;;5.05;100.00
44140;BME280;29803;51.048;4.686;2023-02-01T08:48:02;102257.47;;;5.12;100.00
44140;BME280;29803;51.048;4.686;2023-02-01T08:50:33;102244.72;;;5.17;100.00
44140;BME280;29803;51.048;4.686;2023-02-01T08:53:03;102237.13;;;5.25;100.00
44140;BME280;29803;51.048;4.686;2023-02-01T08:55:34;102245.88;;;5.27;100.00
44140;BME280;29803;51.048;4.686;2023-02-01T08:58:04;102238.66;;;5.29;100.00
44140;BME280;29803;51.048;4.686;2023-02-01T09:00:35;102235.09;;;5.43;100.00
44140;BME280;29803;51.048;4.686;2023-02-01T09:03:05;102228.16;;;5.40;100.00
44140;BME280;29803;51.048;4.686;2023-02-01T09:05:36;102230.53;;;5.45;100.00
44140;BME280;29803;51.048;4.686;2023-02-01T09:08:06;102224.16;;;5.48;100.00
44140;BME280;29803;51.048;4.686;2023-02-01T09:10:37;102220.25;;;5.53;100.00
44140;BME280;29803;51.048;4.686;2023-02-01T09:13:08;102223.47;;;5.58;100.00
44140;BME280;29803;51.048;4.686;2023-02-01T09:15:39;102209.88;;;5.76;100.00
44140;BME280;29803;51.048;4.686;2023-02-01T09:18:09;102210.66;;;5.90;100.00
44140;BME280;29803;51.048;4.686;2023-02-01T09:20:40;102218.84;;;6.14;100.00
44140;BME280;29803;51.048;4.686;2023-02-01T09:23:10;102203.41;;;6.32;100.00
44140;BME280;29803;51.048;4.686;2023-02-01T09:25:41;102196.16;;;6.34;100.00
44140;BME280;29803;51.048;4.686;2023-02-01T09:28:11;102193.41;;;6.48;100.00
44140;BME280;29803;51.048;4.686;2023-02-01T09:30:41;102202.34;;;6.73;100.00
44140;BME280;29803;51.048;4.686;2023-02-01T09:33:12;102186.19;;;7.00;100.00
44140;BME280;29803;51.048;4.686;2023-02-01T09:35:43;102188.47;;;7.17;100.00
44140;BME280;29803;51.048;4.686;2023-02-01T09:38:14;102189.56;;;7.15;100.00
44140;BME280;29803;51.048;4.686;2023-02-01T09:40:46;102205.38;;;7.42;100.00
44140;BME280;29803;51.048;4.686;2023-02-01T09:46:26;102186.91;;;7.98;100.00
44140;BME280;29803;51.048;4.686;2023-02-01T09:49:02;102190.22;;;8.01;100.00
44140;BME280;29803;51.048;4.686;2023-02-01T09:51:37;102193.19;;;8.21;100.00
44140;BME280;29803;51.048;4.686;2023-02-01T09:54:13;102200.00;;;8.25;100.00
44140;BME280;29803;51.048;4.686;2023-02-01T09:56:49;102195.88;;;8.21;100.00
44140;BME280;29803;51.048;4.686;2023-02-01T09:59:29;102202.56;;;8.26;100.00
44140;BME280;29803;51.048;4.686;2023-02-01T10:02:02;102203.34;;;8.40;100.00
44140;BME280;29803;51.048;4.686;2023-02-01T10:04:34;102203.72;;;8.46;100.00
44140;BME280;29803;51.048;4.686;2023-02-01T10:15:43;102192.88;;;9.26;100.00
44140;BME280;29803;51.048;4.686;2023-02-01T10:18:39;102195.41;;;9.28;100.00
44140;BME280;29803;51.048;4.686;2023-02-01T10:24:32;102203.38;;;8.73;100.00
44140;BME280;29803;51.048;4.686;2023-02-01T10:29:39;102207.25;;;8.58;100.00
44140;BME280;29803;51.048;4.686;2023-02-01T10:32:14;102209.06;;;8.57;100.00
44140;BME280;29803;51.048;4.686;2023-02-01T10:34:50;102206.53;;;8.67;100.00
44140;BME280;29803;51.048;4.686;2023-02-01T10:37:27;102203.13;;;8.88;100.00
44140;BME280;29803;51.048;4.686;2023-02-01T10:40:01;102219.94;;;8.90;100.00
44140;BME280;29803;51.048;4.686;2023-02-01T10:42:33;102210.44;;;8.86;100.00
44140;BME280;29803;51.048;4.686;2023-02-01T10:45:04;102214.56;;;9.01;100.00
44140;BME280;29803;51.048;4.686;2023-02-01T10:47:34;102222.22;;;9.17;100.00
44140;BME280;29803;51.048;4.686;2023-02-01T10:50:29;102218.91;;;9.36;100.00
44140;BME280;29803;51.048;4.686;2023-02-01T10:53:08;102214.13;;;9.50;100.00
44140;BME280;29803;51.048;4.686;2023-02-01T10:55:56;102220.81;;;9.56;100.00
44140;BME280;29803;51.048;4.686;2023-02-01T10:58:47;102216.28;;;9.56;100.00
44140;BME280;29803;51.048;4.686;2023-02-01T11:01:21;102197.00;;;9.30;100.00
44140;BME280;29803;51.048;4.686;2023-02-01T11:03:56;102193.00;;;9.25;100.00
44140;BME280;29803;51.048;4.686;2023-02-01T11:06:44;102194.97;;;9.12;100.00
44140;BME280;29803;51.048;4.686;2023-02-01T11:09:19;102170.16;;;8.98;100.00
44140;BME280;29803;51.048;4.686;2023-02-01T11:14:38;102179.00;;;9.21;100.00
44140;BME280;29803;51.048;4.686;2023-02-01T11:17:20;102172.56;;;9.13;100.00
44140;BME280;29803;51.048;4.686;2023-02-01T11:19:58;102164.06;;;8.96;100.00
44140;BME280;29803;51.048;4.686;2023-02-01T11:22:29;102172.34;;;8.82;100.00
44140;BME280;29803;51.048;4.686;2023-02-01T11:25:01;102160.41;;;8.97;100.00
44140;BME280;29803;51.048;4.686;2023-02-01T11:27:38;102156.97;;;9.29;100.00
44140;BME280;29803;51.048;4.686;2023-02-01T11:30:15;102169.19;;;9.54;100.00
44140;BME280;29803;51.048;4.686;2023-02-01T11:32:47;102163.22;;;9.50;100.00
44140;BME280;29803;51.048;4.686;2023-02-01T11:35:20;102163.66;;;9.23;100.00
44140;BME280;29803;51.048;4.686;2023-02-01T11:37:55;102167.91;;;9.26;100.00
44140;BME280;29803;51.048;4.686;2023-02-01T11:40:35;102153.97;;;9.11;100.00
44140;BME280;29803;51.048;4.686;2023-02-01T11:43:13;102162.13;;;9.10;100.00
44140;BME280;29803;51.048;4.686;2023-02-01T11:48:42;102148.84;;;9.08;100.00
44140;BME280;29803;51.048;4.686;2023-02-01T11:51:37;102153.34;;;9.07;100.00
44140;BME280;29803;51.048;4.686;2023-02-01T11:57:13;102154.56;;;9.03;100.00
44140;BME280;29803;51.048;4.686;2023-02-01T12:00:15;102151.91;;;8.92;100.00
44140;BME280;29803;51.048;4.686;2023-02-01T12:03:03;102144.16;;;8.89;100.00
44140;BME280;29803;51.048;4.686;2023-02-01T12:16:53;102128.81;;;8.57;100.00
44140;BME280;29803;51.048;4.686;2023-02-01T12:20:00;102154.38;;;8.62;100.00
44140;BME280;29803;51.048;4.686;2023-02-01T12:22:50;102141.97;;;8.72;100.00
44140;BME280;29803;51.048;4.686;2023-02-01T12:25:31;102145.47;;;8.72;100.00
44140;BME280;29803;51.048;4.686;2023-02-01T12:28:20;102125.78;;;8.73;100.00
44140;BME280;29803;51.048;4.686;2023-02-01T12:37:08;102121.53;;;8.71;100.00
44140;BME280;29803;51.048;4.686;2023-02-01T12:42:59;102127.38;;;8.65;100.00
44140;BME280;29803;51.048;4.686;2023-02-01T12:45:38;102119.09;;;8.68;100.00
44140;BME280;29803;51.048;4.686;2023-02-01T12:48:28;102117.53;;;8.65;100.00
44140;BME280;29803;51.048;4.686;2023-02-01T12:51:06;102115.00;;;8.64;100.00
44140;BME280;29803;51.048;4.686;2023-02-01T12:53:52;102114.75;;;8.55;100.00
44140;BME280;29803;51.048;4.686;2023-02-01T12:56:31;102120.44;;;8.62;100.00
44140;BME280;29803;51.048;4.686;2023-02-01T12:59:05;102110.00;;;8.59;100.00
44140;BME280;29803;51.048;4.686;2023-02-01T13:01:44;102105.97;;;8.65;100.00
44140;BME280;29803;51.048;4.686;2023-02-01T13:04:27;102112.41;;;8.62;100.00
44140;BME280;29803;51.048;4.686;2023-02-01T13:12:15;102101.63;;;8.64;100.00
44140;BME280;29803;51.048;4.686;2023-02-01T13:17:54;102088.94;;;8.77;100.00
44140;BME280;29803;51.048;4.686;2023-02-01T13:23:23;102095.03;;;8.79;100.00
44140;BME280;29803;51.048;4.686;2023-02-01T13:25:56;102100.25;;;8.80;100.00
44140;BME280;29803;51.048;4.686;2023-02-01T13:28:44;102101.81;;;8.83;100.00
44140;BME280;29803;51.048;4.686;2023-02-01T13:37:56;102099.59;;;8.88;100.00
44140;BME280;29803;51.048;4.686;2023-02-01T13:40:43;102097.53;;;8.92;100.00
44140;BME280;29803;51.048;4.686;2023-02-01T13:43:32;102099.13;;;8.94;100.00
44140;BME280;29803;51.048;4.686;2023-02-01T13:46:06;102099.84;;;8.96;100.00
44140;BME280;29803;51.048;4.686;2023-02-01T13:48:45;102097.88;;;8.98;100.00
44140;BME280;29803;51.048;4.686;2023-02-01T13:51:32;102096.06;;;8.99;100.00
44140;BME280;29803;51.048;4.686;2023-02-01T13:54:04;102093.88;;;9.04;100.00
44140;BME280;29803;51.048;4.686;2023-02-01T13:56:54;102097.88;;;9.10;100.00
44140;BME280;29803;51.048;4.686;2023-02-01T14:08:14;102109.91;;;9.15;100.00
44140;BME280;29803;51.048;4.686;2023-02-01T14:10:54;102106.47;;;9.13;100.00
44140;BME280;29803;51.048;4.686;2023-02-01T14:13:30;102103.31;;;9.08;100.00
44140;BME280;29803;51.048;4.686;2023-02-01T14:21:53;102122.19;;;9.06;100.00
44140;BME280;29803;51.048;4.686;2023-02-01T14:24:31;102124.16;;;9.04;100.00
44140;BME280;29803;51.048;4.686;2023-02-01T14:29:50;102120.66;;;8.93;100.00
44140;BME280;29803;51.048;4.686;2023-02-01T14:32:46;102134.16;;;8.91;100.00
44140;BME280;29803;51.048;4.686;2023-02-01T14:35:20;102126.38;;;8.88;100.00
44140;BME280;29803;51.048;4.686;2023-02-01T14:37:59;102132.19;;;8.93;100.00
44140;BME280;29803;51.048;4.686;2023-02-01T14:40:32;102126.97;;;8.92;100.00
44140;BME280;29803;51.048;4.686;2023-02-01T14:43:07;102129.03;;;8.88;100.00
44140;BME280;29803;51.048;4.686;2023-02-01T14:50:42;102137.09;;;8.77;100.00
44140;BME280;29803;51.048;4.686;2023-02-01T14:53:19;102133.56;;;8.76;100.00
44140;BME280;29803;51.048;4.686;2023-02-01T15:04:16;102148.44;;;8.69;100.00
44140;BME280;29803;51.048;4.686;2023-02-01T15:07:07;102152.53;;;8.73;100.00
44140;BME280;29803;51.048;4.686;2023-02-01T15:09:45;102149.38;;;8.68;100.00
44140;BME280;29803;51.048;4.686;2023-02-01T15:12:23;102161.91;;;8.68;100.00
44140;BME280;29803;51.048;4.686;2023-02-01T15:15:17;102151.69;;;8.62;100.00
44140;BME280;29803;51.048;4.686;2023-02-01T15:18:14;102164.34;;;8.60;100.00
44140;BME280;29803;51.048;4.686;2023-02-01T15:20:56;102159.97;;;8.59;100.00
44140;BME280;29803;51.048;4.686;2023-02-01T15:23:28;102163.03;;;8.54;100.00
44140;BME280;29803;51.048;4.686;2023-02-01T15:25:59;102166.06;;;8.49;100.00
44140;BME280;29803;51.048;4.686;2023-02-01T15:28:29;102163.47;;;8.48;100.00
44140;BME280;29803;51.048;4.686;2023-02-01T15:31:03;102165.66;;;8.43;100.00
44140;BME280;29803;51.048;4.686;2023-02-01T15:33:34;102168.34;;;8.43;100.00
44140;BME280;29803;51.048;4.686;2023-02-01T15:38:38;102177.69;;;8.37;100.00